Time;durP1;ratioP1;P1;durP2;ratioP2;P2;SDS_P1;SDS_P2;PMS_P1;PMS_P2;Temp;Humidity;BMP_temperature;BMP_pressure;BME280_temperature;BME280_humidity;BME280_pressure;Samples;Min_cycle;Max_cycle;Signal;HPM_P1;HPM_P2
2022/07/13 00:08:53;;;;;;;3.25;1.65;;;21.80;99.90;;;;;;6713459;88;20190;-79
2022/07/13 00:18:53;;;;;;;2.42;1.52;;;21.50;99.90;;;;;;6716189;88;20211;-79
2022/07/13 00:28:54;;;;;;;3.00;1.70;;;21.60;99.90;;;;;;6717976;88;20205;-79
2022/07/13 00:38:54;;;;;;;7.47;2.75;;;21.60;99.90;;;;;;6717189;88;20231;-78
2022/07/13 00:48:55;;;;;;;3.33;1.70;;;21.60;99.90;;;;;;6707007;88;20205;-78
2022/07/13 00:58:58;;;;;;;4.40;1.70;;;21.50;99.90;;;;;;6710941;88;20209;-78
2022/07/13 01:09:00;;;;;;;3.25;1.70;;;21.40;99.90;;;;;;6718129;88;20254;-79
2022/07/13 01:19:03;;;;;;;2.35;1.50;;;21.50;99.90;;;;;;6726518;88;20197;-78
2022/07/13 01:29:04;;;;;;;3.72;1.70;;;21.50;99.90;;;;;;6724912;88;20206;-78
2022/07/13 01:39:05;;;;;;;3.10;1.90;;;21.60;99.90;;;;;;6722213;88;20915;-78
2022/07/13 01:49:05;;;;;;;2.20;1.52;;;21.40;99.90;;;;;;6717508;88;20645;-78
2022/07/13 01:59:06;;;;;;;2.40;1.60;;;21.20;99.90;;;;;;6717087;88;20282;-78
2022/07/13 02:09:06;;;;;;;2.72;1.50;;;21.10;99.90;;;;;;6722225;88;20303;-79
2022/07/13 02:19:07;;;;;;;3.60;2.12;;;21.20;99.90;;;;;;6727257;88;20204;-78
2022/07/13 02:29:07;;;;;;;3.87;1.95;;;21.10;99.90;;;;;;6740020;88;20204;-77
2022/07/13 02:39:08;;;;;;;4.93;1.80;;;20.90;99.90;;;;;;6723112;88;20590;-78
2022/07/13 02:49:09;;;;;;;2.58;1.60;;;21.00;99.90;;;;;;6715664;88;20197;-78
2022/07/13 02:59:09;;;;;;;4.17;1.77;;;21.00;99.90;;;;;;6716219;88;20195;-78
2022/07/13 03:09:10;;;;;;;4.00;1.40;;;21.10;99.90;;;;;;6721184;88;20514;-78
2022/07/13 03:19:10;;;;;;;2.42;1.40;;;21.20;99.90;;;;;;6727836;88;20231;-78
2022/07/13 03:29:11;;;;;;;4.90;1.50;;;21.40;99.90;;;;;;6721466;88;20188;-78
2022/07/13 03:39:11;;;;;;;2.28;1.40;;;21.30;99.90;;;;;;6704643;88;20723;-78
2022/07/13 03:49:12;;;;;;;5.62;1.45;;;21.30;99.90;;;;;;6721770;88;20659;-78
2022/07/13 03:59:12;;;;;;;3.08;1.58;;;21.30;99.90;;;;;;6721298;88;20181;-77
2022/07/13 04:09:13;;;;;;;4.82;1.80;;;21.30;99.90;;;;;;6720421;88;20322;-77
2022/07/13 04:19:13;;;;;;;4.50;1.60;;;21.20;99.90;;;;;;6715883;88;20189;-77
2022/07/13 04:29:14;;;;;;;4.62;1.75;;;21.20;99.90;;;;;;6720264;88;20610;-78
2022/07/13 04:39:14;;;;;;;3.33;1.70;;;21.10;99.90;;;;;;6714416;88;20198;-79
2022/07/13 04:49:19;;;;;;;5.07;1.80;;;21.20;99.90;;;;;;6719719;88;20206;-79
2022/07/13 04:59:19;;;;;;;4.62;1.50;;;21.20;99.90;;;;;;6725544;88;20177;-78
2022/07/13 05:09:20;;;;;;;5.10;1.70;;;21.50;99.90;;;;;;6723667;88;20202;-78
2022/07/13 05:19:21;;;;;;;5.35;1.65;;;21.50;99.90;;;;;;6718556;88;20224;-79
2022/07/13 05:29:21;;;;;;;4.57;1.60;;;21.50;99.90;;;;;;6717503;88;20596;-79
2022/07/13 05:39:22;;;;;;;3.78;1.65;;;21.50;99.90;;;;;;6724050;88;20315;-80
2022/07/13 05:49:22;;;;;;;3.15;1.95;;;21.60;99.90;;;;;;6725020;88;20198;-80
2022/07/13 05:59:23;;;;;;;3.35;1.80;;;21.60;99.90;;;;;;6724075;88;20231;-80
2022/07/13 06:09:24;;;;;;;2.42;1.67;;;21.70;99.90;;;;;;6713827;88;20191;-79
2022/07/13 06:19:24;;;;;;;6.13;2.17;;;21.70;99.90;;;;;;6709403;88;20201;-78
2022/07/13 06:29:25;;;;;;;6.40;2.00;;;21.90;99.90;;;;;;6726466;88;20500;-79
2022/07/13 06:39:25;;;;;;;4.57;1.95;;;22.10;99.90;;;;;;6709140;88;20422;-78
2022/07/13 06:59:29;;;;;;;3.53;1.90;;;22.30;99.90;;;;;;6764863;88;20232;-79
2022/07/13 07:09:30;;;;;;;5.57;1.98;;;22.40;99.90;;;;;;6764043;88;20233;-80
2022/07/13 07:19:30;;;;;;;4.05;1.73;;;22.70;99.90;;;;;;6759657;88;21715;-79
2022/07/13 07:29:31;;;;;;;3.62;1.73;;;22.90;99.90;;;;;;6745878;88;20243;-80
2022/07/13 07:39:31;;;;;;;3.05;1.65;;;23.30;99.90;;;;;;6746486;88;20621;-80
2022/07/13 07:49:32;;;;;;;2.53;1.60;;;23.50;99.90;;;;;;6745725;88;20229;-80
2022/07/13 07:59:33;;;;;;;4.03;1.60;;;24.10;99.90;;;;;;6745376;88;20197;-79
2022/07/13 08:09:34;;;;;;;8.30;2.10;;;24.60;99.90;;;;;;6744597;88;20256;-80
2022/07/13 08:19:36;;;;;;;6.37;1.80;;;25.00;99.90;;;;;;6744354;88;20288;-79
2022/07/13 08:29:39;;;;;;;3.83;1.70;;;25.50;99.90;;;;;;6740145;88;20185;-80
2022/07/13 08:39:40;;;;;;;3.47;1.50;;;25.80;99.90;;;;;;6744571;88;20209;-79
2022/07/13 08:49:42;;;;;;;6.60;1.60;;;26.40;99.90;;;;;;6744166;88;20735;-80
2022/07/13 08:59:42;;;;;;;4.78;1.65;;;27.10;98.70;;;;;;6744749;88;20184;-80
2022/07/13 09:09:43;;;;;;;7.05;1.95;;;27.70;95.60;;;;;;6742021;88;20319;-81
2022/07/13 09:19:44;;;;;;;7.60;1.70;;;28.50;94.10;;;;;;6747056;88;20297;-80
2022/07/13 09:29:44;;;;;;;3.03;1.50;;;29.00;93.60;;;;;;6744392;88;20196;-80
2022/07/13 09:39:58;;;;;;;3.07;1.20;;;30.00;87.30;;;;;;6740332;88;20749;-80
2022/07/13 09:49:59;;;;;;;1.98;1.20;;;30.90;76.10;;;;;;6741316;88;20233;-79
2022/07/13 10:00:00;;;;;;;5.90;1.60;;;31.10;74.10;;;;;;6739374;88;20498;-81
2022/07/13 10:10:05;;;;;;;2.58;1.35;;;31.80;70.10;;;;;;6745514;88;20250;-80
2022/07/13 10:20:15;;;;;;;2.80;1.40;;;32.30;68.80;;;;;;6742307;88;20216;-80
2022/07/13 10:30:18;;;;;;;2.87;1.30;;;32.40;66.80;;;;;;6744297;88;20177;-80
2022/07/13 10:40:20;;;;;;;6.32;1.50;;;32.10;67.20;;;;;;6750447;88;20482;-80
2022/07/13 10:50:24;;;;;;;5.25;1.62;;;33.80;65.00;;;;;;6737825;87;20666;-81
2022/07/13 11:00:43;;;;;;;4.37;1.65;;;33.10;64.40;;;;;;6759923;88;20167;-82
2022/07/13 11:10:44;;;;;;;3.30;1.55;;;34.20;63.20;;;;;;6760893;88;20280;-80
2022/07/13 11:20:56;;;;;;;3.97;1.60;;;35.50;62.20;;;;;;6761131;88;20187;-80
2022/07/13 11:30:57;;;;;;;4.55;1.40;;;35.90;61.50;;;;;;6745718;88;20209;-81
2022/07/13 11:40:57;;;;;;;2.10;1.62;;;35.70;60.10;;;;;;6751905;88;20184;-80
2022/07/13 11:50:58;;;;;;;4.20;1.70;;;35.70;58.90;;;;;;6760691;87;20768;-81
2022/07/13 12:01:11;;;;;;;3.22;1.67;;;35.70;58.30;;;;;;6756690;88;20259;-81
2022/07/13 12:11:16;;;;;;;2.87;1.60;;;36.60;58.00;;;;;;6742762;88;20211;-81
2022/07/13 12:21:17;;;;;;;5.03;1.70;;;37.00;57.70;;;;;;6743136;88;20183;-82
2022/07/13 12:31:19;;;;;;;;;;;35.70;58.20;;;;;;6756309;88;20684;-81
2022/07/13 12:41:34;;;;;;;4.68;1.90;;;35.10;59.40;;;;;;6748983;88;20563;-81
2022/07/13 12:52:19;;;;;;;2.40;1.80;;;34.60;59.70;;;;;;6737872;77;20256;-80
2022/07/13 13:02:20;;;;;;;5.65;2.00;;;35.30;61.10;;;;;;6751997;88;20713;-81
2022/07/13 13:12:20;;;;;;;;;;;36.10;60.00;;;;;;6739380;88;20181;-80
2022/07/13 13:22:21;;;;;;;6.45;2.10;;;36.80;59.20;;;;;;6696032;88;20057;-81
2022/07/13 13:32:22;;;;;;;5.93;2.03;;;35.60;59.30;;;;;;6727409;88;20229;-78
2022/07/13 13:42:22;;;;;;;3.72;1.73;;;37.30;59.10;;;;;;6727082;88;20206;-79
2022/07/13 13:52:23;;;;;;;5.00;1.80;;;38.50;58.00;;;;;;6739295;87;20201;-80
2022/07/13 14:02:24;;;;;;;5.73;1.73;;;37.10;58.10;;;;;;6747531;88;20192;-80
2022/07/13 14:12:25;;;;;;;5.00;1.90;;;38.10;58.20;;;;;;6746847;88;20196;-79
2022/07/13 14:22:26;;;;;;;3.95;1.70;;;37.60;57.50;;;;;;6742104;88;20228;-80
2022/07/13 14:32:26;;;;;;;3.05;1.50;;;37.10;58.60;;;;;;6735306;88;20198;-79
2022/07/13 14:42:27;;;;;;;3.50;1.58;;;36.70;58.90;;;;;;6727642;88;20255;-78
2022/07/13 14:52:28;;;;;;;;;;;36.20;59.30;;;;;;6739442;87;20725;-80
2022/07/13 15:02:29;;;;;;;2.62;1.40;;;35.80;60.30;;;;;;6745191;88;20077;-81
2022/07/13 15:12:29;;;;;;;3.83;1.40;;;35.00;60.50;;;;;;6731542;88;20201;-81
2022/07/13 15:22:30;;;;;;;4.35;1.65;;;34.60;61.60;;;;;;6721682;88;20186;-80
2022/07/13 15:32:31;;;;;;;;;;;33.60;63.40;;;;;;6730233;88;20655;-81
2022/07/13 15:42:32;;;;;;;5.37;3.47;;;32.70;63.60;;;;;;6743560;88;20104;-79
2022/07/13 15:52:32;;;;;;;2.00;1.50;;;33.10;63.80;;;;;;6727603;88;20222;-81
2022/07/13 16:02:33;;;;;;;9.02;1.70;;;32.60;64.70;;;;;;6737520;88;20324;-83
2022/07/13 16:12:33;;;;;;;6.75;1.90;;;32.20;64.80;;;;;;6736537;88;20196;-83
2022/07/13 16:22:34;;;;;;;4.68;1.90;;;32.40;66.50;;;;;;6729622;88;20183;-81
2022/07/13 16:32:34;;;;;;;2.85;1.65;;;33.20;66.30;;;;;;6750860;88;20161;-82
2022/07/13 16:42:35;;;;;;;3.80;1.70;;;32.60;65.50;;;;;;6753218;88;20184;-82
2022/07/13 16:52:35;;;;;;;3.58;1.73;;;31.70;66.40;;;;;;6765017;88;20169;-82
2022/07/13 17:02:36;;;;;;;3.78;1.90;;;31.50;67.80;;;;;;6762767;88;20207;-82
2022/07/13 17:12:37;;;;;;;3.62;1.50;;;31.60;67.20;;;;;;6756960;88;20214;-81
2022/07/13 17:22:38;;;;;;;5.23;1.90;;;32.50;66.30;;;;;;6744981;88;20387;-81
2022/07/13 17:32:38;;;;;;;6.53;1.75;;;32.60;66.20;;;;;;6727446;88;20201;-83
2022/07/13 17:42:39;;;;;;;4.43;1.70;;;32.70;64.80;;;;;;6735278;88;20188;-80
2022/07/13 17:52:39;;;;;;;8.73;2.10;;;31.70;66.60;;;;;;6738683;88;20200;-80
2022/07/13 18:12:43;;;;;;;6.00;2.58;;;31.70;67.00;;;;;;6667930;88;20200;-79
2022/07/13 18:22:44;;;;;;;4.82;3.03;;;30.60;68.70;;;;;;6691178;88;20726;-82
2022/07/13 18:32:45;;;;;;;5.03;2.12;;;29.40;70.40;;;;;;6688972;88;20195;-82
2022/07/13 18:42:46;;;;;;;5.25;2.00;;;28.50;72.00;;;;;;6668810;88;20188;-81
2022/07/13 18:53:27;;;;;;;6.30;1.85;;;28.10;72.90;;;;;;6685058;78;20306;-82
2022/07/13 19:03:28;;;;;;;3.47;1.67;;;27.70;73.10;;;;;;6803087;87;20886;-81
2022/07/13 19:13:29;;;;;;;3.40;1.80;;;27.30;74.50;;;;;;6790262;87;20245;-82
2022/07/13 19:23:29;;;;;;;6.50;1.95;;;27.00;74.10;;;;;;6784963;87;20254;-80
2022/07/13 19:33:30;;;;;;;3.05;1.85;;;26.70;74.90;;;;;;6762465;88;20172;-81
2022/07/13 19:43:30;;;;;;;3.05;1.65;;;26.70;75.50;;;;;;6761639;88;20164;-81
2022/07/13 19:53:31;;;;;;;2.62;1.77;;;26.30;76.30;;;;;;6741987;88;20250;-81
2022/07/13 20:03:32;;;;;;;3.53;2.10;;;26.20;76.70;;;;;;6776224;87;20184;-82
2022/07/13 20:13:33;;;;;;;3.72;1.90;;;25.90;77.40;;;;;;6780254;88;20417;-83
2022/07/13 20:23:39;;;;;;;3.12;1.70;;;25.50;77.60;;;;;;6775185;88;20204;-83
2022/07/13 20:33:41;;;;;;;3.60;1.60;;;25.30;77.60;;;;;;6775198;88;20176;-81
2022/07/13 20:43:41;;;;;;;2.80;1.90;;;25.20;78.10;;;;;;6776819;87;20168;-82
2022/07/13 20:53:42;;;;;;;4.15;1.70;;;25.00;80.30;;;;;;6779940;87;20214;-82
2022/07/13 21:03:46;;;;;;;4.37;2.10;;;24.90;81.60;;;;;;6768562;88;20657;-81
2022/07/13 21:13:46;;;;;;;5.68;1.80;;;24.60;82.70;;;;;;6768717;88;20198;-80
2022/07/13 21:23:47;;;;;;;2.85;1.90;;;24.40;84.40;;;;;;6768246;88;20973;-80
2022/07/13 21:33:47;;;;;;;3.10;2.00;;;24.40;86.00;;;;;;6765038;88;20274;-79
2022/07/13 21:43:48;;;;;;;3.08;1.92;;;24.20;87.70;;;;;;6765344;88;20219;-80
2022/07/13 21:53:49;;;;;;;3.73;1.80;;;24.10;89.20;;;;;;6765879;85;32433;-80
2022/07/13 22:03:49;;;;;;;2.22;1.52;;;23.80;90.50;;;;;;6733870;88;20211;-80
2022/07/13 22:14:28;;;;;;;3.80;1.90;;;23.60;91.70;;;;;;6733289;88;20294;-80
2022/07/13 22:25:05;;;;;;;3.55;1.77;;;23.70;92.30;;;;;;6715914;88;20183;-79
2022/07/13 22:35:44;;;;;;;3.45;1.80;;;23.50;93.10;;;;;;6712112;88;20738;-80
2022/07/13 22:46:22;;;;;;;4.00;1.62;;;23.30;93.90;;;;;;6713131;88;20245;-80
2022/07/13 22:57:00;;;;;;;3.67;1.87;;;23.30;94.90;;;;;;6716211;88;20166;-80
2022/07/13 23:07:38;;;;;;;3.70;1.70;;;23.20;96.00;;;;;;6716250;88;20194;-81
2022/07/13 23:18:16;;;;;;;4.12;1.85;;;23.20;97.00;;;;;;6715173;88;20201;-81
2022/07/13 23:28:17;;;;;;;6.43;2.08;;;23.10;98.40;;;;;;6713993;88;20190;-80
2022/07/13 23:38:18;;;;;;;4.15;2.10;;;23.00;99.70;;;;;;6713803;88;20767;-81
2022/07/13 23:48:19;;;;;;;6.50;2.12;;;22.90;99.90;;;;;;6714757;88;20182;-80
2022/07/13 23:58:19;;;;;;;3.90;2.17;;;22.80;99.90;;;;;;6724671;88;20208;-81
